ADDS METAR Data INFO
IDs: Format: Raw Decoded Include TAF

Data at: 0923 UTC 13 Dec 2017

KVCB 130853Z AUTO 00000KT 10SM CLR 00/M01 A3021 RMK AO2 SLP228 T00001006 51002
KVCB 130753Z AUTO 00000KT 10SM CLR 01/00 A3021 RMK AO2 SLP228 T00110000 401831022
KVCB 130653Z AUTO 00000KT 10SM CLR 02/01 A3021 RMK AO2 SLP228 T00220006
KVCB 130553Z AUTO 23003KT 10SM CLR 03/01 A3020 RMK AO2 SLP228 T00280011 10172 20017 55001
KVCB 130453Z AUTO 00000KT 10SM CLR 03/01 A3020 RMK AO2 SLP227 T00330011
KVCB 130353Z AUTO 23005KT 10SM CLR 04/01 A3020 RMK AO2 SLP228 T00390011
KVCB 130253Z AUTO 23003KT 10SM CLR 05/01 A3021 RMK AO2 SLP229 T00500011 56004
KVCB 130153Z AUTO 23004KT 10SM CLR 08/02 A3021 RMK AO2 SLP230 T00830022
KVCB 130053Z AUTO 00000KT 10SM CLR 11/02 A3021 RMK AO2 SLP231 T01060022
KVCB 122353Z AUTO 00000KT 10SM CLR 17/02 A3022 RMK AO2 SLP232 T01720022 10183 20106 56021
KVCB 122253Z AUTO VRB03KT 10SM CLR 18/02 A3024 RMK AO2 SLP238 T01830022
KVCB 122153Z AUTO VRB03KT 10SM CLR 17/02 A3025 RMK AO2 SLP244 T01720017
KVCB 122053Z AUTO VRB04KT 10SM CLR 17/02 A3028 RMK AO2 SLP254 T01670022 58033
KVCB 121953Z AUTO VRB03KT 10SM CLR 16/02 A3032 RMK AO2 SLP266 T01560017
KVCB 121853Z AUTO VRB04KT 10SM CLR 13/02 A3036 RMK AO2 SLP279 T01330017
KVCB 121753Z AUTO 03004KT 10SM CLR 11/01 A3038 RMK AO2 SLP288 T01060006 10106 21022 51008
KVCB 121653Z AUTO 00000KT 10SM CLR 06/02 A3037 RMK AO2 SLP286 T00610022
KVCB 121553Z AUTO 00000KT 10SM CLR 01/00 A3037 RMK AO2 SLP283 T00060000
KVCB 121453Z AUTO 03003KT 10SM CLR M01/M02 A3036 RMK AO2 SLP280 T10111022 53001
KVCB 121353Z AUTO 00000KT 10SM CLR M01/M02 A3035 RMK AO2 SLP278 T10111022
KVCB 121253Z AUTO 27003KT 10SM CLR 01/M01 A3035 RMK AO2 SLP275 T00061011
KVCB 121153Z AUTO 00000KT 10SM CLR 01/M01 A3035 RMK AO2 SLP278 T00111006 10044 21006 58002
KVCB 121053Z AUTO 00000KT 10SM CLR 01/M01 A3036 RMK AO2 SLP279 T00111006
KVCB 120953Z AUTO 25003KT 10SM CLR 01/M01 A3036 RMK AO2 SLP281 T00111006
KVCB 120853Z AUTO 00000KT 10SM CLR 02/00 A3036 RMK AO2 SLP280 T00170000 51005
KVCB 120753Z AUTO 00000KT 10SM CLR 03/00 A3036 RMK AO2 SLP279 T00280000 402001011
KVCB 120653Z AUTO 24003KT 10SM CLR 02/M01 A3035 RMK AO2 SLP277 T00221006
KVCB 120553Z AUTO 00000KT 10SM CLR 03/M01 A3035 RMK AO2 SLP275 T00281006 10189 20028 53012
KVCB 120453Z AUTO 25003KT 10SM CLR 05/01 A3033 RMK AO2 SLP270 T00500011
KVCB 120353Z AUTO 00000KT 10SM CLR 06/01 A3032 RMK AO2 SLP267 T00560006
KVCB 120253Z AUTO 22004KT 10SM CLR 11/02 A3031 RMK AO2 SLP264 T01060022 51007
KVCB 120153Z AUTO 23004KT 10SM CLR 11/02 A3030 RMK AO2 SLP262 T01060022
KVCB 120053Z AUTO 00000KT 10SM CLR 14/03 A3030 RMK AO2 SLP259 T01440028
KVCB 112353Z AUTO 07006KT 10SM CLR 19/M02 A3029 RMK AO2 SLP256 T01891017 10200 20111 56009
KVCB 112253Z AUTO 05005KT 10SM CLR 19/M01 A3029 RMK AO2 SLP257 T01941011
KVCB 112153Z AUTO 05007KT 10SM CLR 19/M01 A3030 RMK AO2 SLP259 T01941011